createdAt,value
2023-04-04T00:00:12.417Z,100805.75
2023-04-04T00:02:40.348Z,100810.94
2023-04-04T00:05:09.775Z,100805.47
2023-04-04T00:07:38.876Z,100808.44
2023-04-04T00:10:07.565Z,100809.91
2023-04-04T00:12:35.234Z,100802.97
2023-04-04T00:15:02.880Z,100797.72
2023-04-04T00:17:30.783Z,100795.28
2023-04-04T00:19:58.693Z,100794.66
2023-04-04T00:22:26.419Z,100798.06
2023-04-04T00:24:55.606Z,100791.28
2023-04-04T00:27:23.297Z,100787.69
2023-04-04T00:29:50.917Z,100795.28
2023-04-04T00:32:18.622Z,100792.97
2023-04-04T00:34:46.465Z,100787.69
2023-04-04T00:37:14.174Z,100790.66
2023-04-04T00:39:41.803Z,100788.34
2023-04-04T00:42:10.763Z,100789.69
2023-04-04T00:44:38.359Z,100780.56
2023-04-04T00:47:06.052Z,100777.13
2023-04-04T00:49:34.523Z,100776.75
2023-04-04T00:52:02.331Z,100770.13
2023-04-04T00:54:31.122Z,100770.84
2023-04-04T00:56:59.013Z,100772.84
2023-04-04T00:59:29.196Z,100773.22
2023-04-04T01:01:57.167Z,100765.94
2023-04-04T01:04:24.857Z,100764.41
2023-04-04T01:06:52.542Z,100771.63
2023-04-04T01:09:20.278Z,100766.34
2023-04-04T01:11:48.030Z,100764.69
2023-04-04T01:14:16.144Z,100760.75
2023-04-04T01:16:46.573Z,100766.25
2023-04-04T01:19:23.005Z,100758.22
2023-04-04T01:21:53.583Z,100757.91
2023-04-04T01:24:23.788Z,100757.22
2023-04-04T01:26:52.805Z,100760.31
2023-04-04T01:29:20.435Z,100758.50
2023-04-04T01:31:55.071Z,100751.16
2023-04-04T01:34:31.861Z,100757.31
2023-04-04T01:37:04.639Z,100746.22
2023-04-04T01:39:36.971Z,100756.47
2023-04-04T01:42:07.588Z,100753.50
2023-04-04T01:44:35.787Z,100750.22
2023-04-04T01:47:06.944Z,100745.66
2023-04-04T01:49:34.657Z,100739.38
2023-04-04T01:52:03.195Z,100736.72
2023-04-04T01:54:32.392Z,100746.50
2023-04-04T01:56:59.977Z,100738.00
2023-04-04T01:59:29.021Z,100736.16
2023-04-04T02:01:57.760Z,100739.81
2023-04-04T02:04:26.517Z,100739.84
2023-04-04T02:06:56.074Z,100736.25
2023-04-04T02:09:23.767Z,100736.22
2023-04-04T02:11:51.380Z,100729.84
2023-04-04T02:14:19.514Z,100733.53
2023-04-04T02:16:48.428Z,100735.84
2023-04-04T02:19:16.102Z,100742.81
2023-04-04T02:21:43.709Z,100732.06
2023-04-04T02:24:11.682Z,100747.88
2023-04-04T02:26:39.326Z,100739.13
2023-04-04T02:29:07.216Z,100738.25
2023-04-04T02:31:34.974Z,100732.81
2023-04-04T02:34:03.972Z,100741.56
2023-04-04T02:36:31.618Z,100733.00
2023-04-04T02:38:59.266Z,100729.03
2023-04-04T02:41:26.832Z,100732.53
2023-04-04T02:43:54.548Z,100727.19
2023-04-04T02:46:22.345Z,100723.75
2023-04-04T02:48:50.458Z,100729.03
2023-04-04T02:51:19.383Z,100731.75
2023-04-04T02:53:47.024Z,100734.75
2023-04-04T02:56:14.676Z,100737.97
2023-04-04T02:58:42.827Z,100738.09
2023-04-04T03:01:10.616Z,100736.44
2023-04-04T03:03:38.419Z,100733.84
2023-04-04T03:06:06.353Z,100734.06
2023-04-04T03:08:35.923Z,100736.44
2023-04-04T03:11:03.911Z,100739.72
2023-04-04T03:13:31.657Z,100730.31
2023-04-04T03:16:02.627Z,100731.31
2023-04-04T03:18:30.427Z,100741.28
2023-04-04T03:20:58.022Z,100733.47
2023-04-04T03:23:25.812Z,100743.75
2023-04-04T03:25:56.100Z,100740.63
2023-04-04T03:28:23.749Z,100734.91
2023-04-04T03:30:51.378Z,100734.25
2023-04-04T03:33:19.367Z,100737.28
2023-04-04T03:35:47.106Z,100734.03
2023-04-04T03:38:14.724Z,100728.69
2023-04-04T03:40:44.128Z,100739.28
2023-04-04T03:43:13.483Z,100743.31
2023-04-04T03:45:41.166Z,100742.53
2023-04-04T03:48:10.513Z,100733.47
2023-04-04T03:50:38.241Z,100737.16
2023-04-04T03:53:06.186Z,100737.31
2023-04-04T03:55:35.049Z,100732.03
2023-04-04T03:58:02.661Z,100741.63
2023-04-04T04:00:31.700Z,100738.63
2023-04-04T04:02:59.595Z,100736.09
2023-04-04T04:05:27.343Z,100730.38
2023-04-04T04:07:54.957Z,100729.47
2023-04-04T04:10:22.613Z,100736.47
2023-04-04T04:12:50.346Z,100730.28
2023-04-04T04:15:18.028Z,100729.31
2023-04-04T04:17:47.064Z,100733.69
2023-04-04T04:20:14.992Z,100725.00
2023-04-04T04:22:47.484Z,100734.00
2023-04-04T04:25:15.405Z,100728.16
2023-04-04T04:27:43.061Z,100725.66
2023-04-04T04:30:11.824Z,100724.72
2023-04-04T04:32:39.477Z,100731.34
2023-04-04T04:35:09.884Z,100732.50
2023-04-04T04:37:37.614Z,100726.06
2023-04-04T04:40:05.841Z,100730.69
2023-04-04T04:42:33.553Z,100721.41
2023-04-04T04:45:01.297Z,100733.59
2023-04-04T04:47:31.242Z,100735.50
2023-04-04T04:49:58.914Z,100739.94
2023-04-04T04:52:31.612Z,100731.06
2023-04-04T04:54:59.346Z,100731.88
2023-04-04T04:57:27.370Z,100733.56
2023-04-04T04:59:55.020Z,100732.72
2023-04-04T05:02:22.852Z,100731.03
2023-04-04T05:04:50.604Z,100726.22
2023-04-04T05:07:18.263Z,100736.09
2023-04-04T05:09:47.220Z,100733.81
2023-04-04T05:12:14.875Z,100733.91
2023-04-04T05:14:42.574Z,100731.78
2023-04-04T05:17:10.266Z,100729.84
2023-04-04T05:19:37.935Z,100729.94
2023-04-04T05:22:05.803Z,100734.75
2023-04-04T05:24:33.550Z,100732.91
2023-04-04T05:27:02.608Z,100734.00
2023-04-04T05:29:30.348Z,100738.63
2023-04-04T05:31:57.957Z,100731.22
2023-04-04T05:34:26.567Z,100728.53
2023-04-04T05:36:54.156Z,100736.25
2023-04-04T05:39:21.893Z,100749.13
2023-04-04T05:41:49.604Z,100745.59
2023-04-04T05:44:18.549Z,100744.66
2023-04-04T05:46:46.257Z,100744.50
2023-04-04T05:49:14.095Z,100742.34
2023-04-04T05:51:41.700Z,100750.47
2023-04-04T05:54:09.556Z,100745.41
2023-04-04T05:56:37.279Z,100741.34
2023-04-04T05:59:05.248Z,100741.13
2023-04-04T06:01:34.499Z,100743.59
2023-04-04T06:04:02.138Z,100744.38
2023-04-04T06:06:29.791Z,100746.72
2023-04-04T06:08:57.567Z,100750.53
2023-04-04T06:11:26.264Z,100741.97
2023-04-04T06:13:55.094Z,100741.94
2023-04-04T06:16:23.336Z,100741.47
2023-04-04T06:18:52.521Z,100743.38
2023-04-04T06:21:20.404Z,100736.94
2023-04-04T06:23:47.963Z,100742.59
2023-04-04T06:26:16.556Z,100753.81
2023-04-04T06:28:49.180Z,100751.69
2023-04-04T06:31:16.894Z,100752.09
2023-04-04T06:33:44.595Z,100747.94
2023-04-04T06:36:13.700Z,100755.22
2023-04-04T06:38:41.406Z,100757.72
2023-04-04T06:41:09.032Z,100754.13
2023-04-04T06:43:36.607Z,100746.72
2023-04-04T06:46:04.436Z,100758.94
2023-04-04T06:48:32.140Z,100757.50
2023-04-04T06:50:59.788Z,100754.97
2023-04-04T06:53:28.790Z,100757.97
2023-04-04T06:55:56.467Z,100766.25
2023-04-04T06:58:24.221Z,100751.38
2023-04-04T07:00:51.838Z,100756.16
2023-04-04T07:03:20.186Z,100756.94
2023-04-04T07:05:47.858Z,100762.91
2023-04-04T07:08:15.576Z,100767.63
2023-04-04T07:10:44.804Z,100753.06
2023-04-04T07:13:12.653Z,100755.16
2023-04-04T07:15:40.543Z,100751.50
2023-04-04T07:18:09.115Z,100747.09
2023-04-04T07:20:37.061Z,100758.25
2023-04-04T07:23:04.954Z,100749.00
2023-04-04T07:25:32.599Z,100753.31
2023-04-04T07:28:11.740Z,100755.53
2023-04-04T07:30:41.532Z,100746.16
2023-04-04T07:33:09.476Z,100750.53
2023-04-04T07:35:37.775Z,100748.28
2023-04-04T07:38:05.441Z,100753.63
2023-04-04T07:40:33.340Z,100743.84
2023-04-04T07:43:02.346Z,100745.31
2023-04-04T07:45:30.029Z,100739.19
2023-04-04T07:47:57.735Z,100739.16
2023-04-04T07:50:26.162Z,100746.38
2023-04-04T07:52:55.952Z,100753.63
2023-04-04T07:55:25.300Z,100741.94
2023-04-04T07:57:53.458Z,100742.16
2023-04-04T08:00:25.849Z,100742.84
2023-04-04T08:02:54.884Z,100743.69
2023-04-04T08:05:23.760Z,100738.91
2023-04-04T08:07:51.466Z,100746.44
2023-04-04T08:10:20.699Z,100737.63
2023-04-04T08:12:48.910Z,100739.09
2023-04-04T08:15:17.094Z,100744.38
2023-04-04T08:17:46.104Z,100736.25
2023-04-04T08:20:14.338Z,100746.88
2023-04-04T08:22:43.534Z,100739.84
2023-04-04T08:25:11.784Z,100741.88
2023-04-04T08:27:43.907Z,100746.16
2023-04-04T08:30:12.848Z,100739.72
2023-04-04T08:32:40.917Z,100736.66
2023-04-04T08:35:10.664Z,100743.88
2023-04-04T08:37:38.398Z,100740.78
2023-04-04T08:40:07.192Z,100730.53
2023-04-04T08:42:36.091Z,100733.78
2023-04-04T08:45:05.432Z,100722.34
2023-04-04T08:47:36.102Z,100721.00
2023-04-04T08:50:07.671Z,100722.66
2023-04-04T08:52:37.914Z,100715.25
2023-04-04T08:55:06.943Z,100722.97
2023-04-04T08:57:34.612Z,100711.06
2023-04-04T09:00:06.158Z,100709.88
2023-04-04T09:02:38.635Z,100715.72
2023-04-04T09:05:09.998Z,100715.69
2023-04-04T09:07:39.938Z,100711.28
2023-04-04T09:10:11.696Z,100720.44
2023-04-04T09:12:42.912Z,100713.22
2023-04-04T09:15:12.246Z,100724.31
2023-04-04T09:17:40.056Z,100710.75
2023-04-04T09:20:35.773Z,100721.00
2023-04-04T09:23:06.508Z,100718.75
2023-04-04T09:25:34.397Z,100723.72
2023-04-04T09:28:05.036Z,100713.38
2023-04-04T09:30:34.711Z,100716.16
2023-04-04T09:33:05.005Z,100714.91
2023-04-04T09:35:35.387Z,100715.72
2023-04-04T09:38:03.762Z,100713.50
2023-04-04T09:40:33.262Z,100714.63
2023-04-04T09:43:01.965Z,100714.34
2023-04-04T09:45:32.647Z,100707.66
2023-04-04T09:48:01.129Z,100706.97
2023-04-04T09:50:30.369Z,100708.53
2023-04-04T09:53:00.147Z,100705.91
2023-04-04T09:55:34.658Z,100709.03
2023-04-04T09:58:13.004Z,100708.25
2023-04-04T10:00:44.837Z,100709.72
2023-04-04T10:03:14.488Z,100701.44
2023-04-04T10:05:42.638Z,100705.00
2023-04-04T10:08:18.129Z,100700.13
2023-04-04T10:11:06.596Z,100708.75
2023-04-04T10:13:41.021Z,100688.34
2023-04-04T10:16:10.594Z,100701.56
2023-04-04T10:18:39.157Z,100699.69
2023-04-04T10:23:43.295Z,100697.28
2023-04-04T10:26:13.559Z,100701.88
2023-04-04T10:28:42.430Z,100715.81
2023-04-04T10:31:18.430Z,100702.34
2023-04-04T10:33:53.565Z,100698.56
2023-04-04T10:36:25.553Z,100704.44
2023-04-04T10:39:06.099Z,100702.16
2023-04-04T10:41:36.548Z,100703.41
2023-04-04T10:44:14.521Z,100706.81
2023-04-04T10:46:47.517Z,100705.31
2023-04-04T10:49:16.553Z,100703.56
2023-04-04T10:51:55.119Z,100695.63
2023-04-04T10:54:25.040Z,100687.97
2023-04-04T10:56:55.119Z,100689.88
2023-04-04T10:59:26.308Z,100680.78
2023-04-04T11:01:58.068Z,100684.63
2023-04-04T11:04:34.321Z,100691.25
2023-04-04T11:07:18.395Z,100677.44
2023-04-04T11:09:56.486Z,100680.84
2023-04-04T11:12:33.409Z,100668.59
2023-04-04T11:15:12.655Z,100667.50
2023-04-04T11:18:02.805Z,100668.75
2023-04-04T11:20:36.684Z,100655.28
2023-04-04T11:23:15.456Z,100660.81
2023-04-04T11:25:43.496Z,100661.06
2023-04-04T11:28:16.312Z,100654.41
2023-04-04T11:30:48.795Z,100649.56
2023-04-04T11:33:28.485Z,100647.53
2023-04-04T11:36:06.874Z,100649.00
2023-04-04T11:38:36.475Z,100647.72
2023-04-04T11:41:04.304Z,100642.72
2023-04-04T11:43:34.621Z,100652.88
2023-04-04T11:46:10.177Z,100636.28
2023-04-04T11:48:40.081Z,100656.59
2023-04-04T11:51:08.203Z,100636.06
2023-04-04T11:53:35.861Z,100633.59
2023-04-04T11:56:04.114Z,100635.22
2023-04-04T11:58:37.033Z,100638.44
2023-04-04T12:01:06.021Z,100626.41
2023-04-04T12:03:35.042Z,100614.66
2023-04-04T12:06:03.036Z,100614.41
2023-04-04T12:08:33.699Z,100620.28
2023-04-04T12:11:06.519Z,100615.00
2023-04-04T12:13:35.531Z,100614.19
2023-04-04T12:16:03.722Z,100619.13
2023-04-04T12:18:31.516Z,100618.13
2023-04-04T12:20:59.334Z,100621.56
2023-04-04T12:23:27.716Z,100618.28
2023-04-04T12:25:57.643Z,100609.25
2023-04-04T12:28:27.273Z,100603.94
2023-04-04T12:30:57.778Z,100614.59
2023-04-04T12:33:25.648Z,100604.22
2023-04-04T12:35:54.675Z,100602.31
2023-04-04T12:38:22.527Z,100599.56
2023-04-04T12:40:52.392Z,100608.00
2023-04-04T12:43:20.882Z,100599.97
2023-04-04T12:45:51.626Z,100600.09
2023-04-04T12:48:22.636Z,100595.88
2023-04-04T12:50:53.182Z,100599.34
2023-04-04T12:53:28.897Z,100590.19
2023-04-04T12:56:03.141Z,100592.09
2023-04-04T12:58:32.047Z,100591.38
2023-04-04T13:01:04.459Z,100600.38
2023-04-04T13:03:35.202Z,100585.03
2023-04-04T13:06:02.982Z,100573.72
2023-04-04T13:08:31.002Z,100573.16
2023-04-04T13:11:04.683Z,100564.25
2023-04-04T13:13:36.982Z,100571.25
2023-04-04T13:16:07.570Z,100569.91
2023-04-04T13:18:38.695Z,100568.56
2023-04-04T13:21:08.541Z,100560.44
2023-04-04T13:23:37.838Z,100556.13
2023-04-04T13:26:05.717Z,100545.53
2023-04-04T13:28:33.563Z,100549.81
2023-04-04T13:31:03.781Z,100545.31
2023-04-04T13:33:42.335Z,100544.16
2023-04-04T13:36:10.680Z,100543.97
2023-04-04T13:38:38.386Z,100542.19
2023-04-04T13:41:06.152Z,100533.66
2023-04-04T13:43:34.018Z,100535.09
2023-04-04T13:46:03.583Z,100526.22
2023-04-04T13:48:31.493Z,100521.72
2023-04-04T13:51:00.780Z,100517.25
2023-04-04T13:53:28.469Z,100514.91
2023-04-04T13:56:16.778Z,100521.38
2023-04-04T13:58:43.889Z,100533.44
2023-04-04T14:01:11.810Z,100522.72
2023-04-04T14:03:39.934Z,100519.41
2023-04-04T14:06:11.122Z,100517.19
2023-04-04T14:08:39.507Z,100514.09
2023-04-04T14:11:07.373Z,100511.09
2023-04-04T14:13:36.264Z,100509.94
2023-04-04T14:16:04.268Z,100514.91
2023-04-04T14:18:32.021Z,100507.09
2023-04-04T14:21:00.280Z,100510.72
2023-04-04T14:23:30.498Z,100494.78
2023-04-04T14:25:58.138Z,100491.97
2023-04-04T14:28:26.050Z,100505.59
2023-04-04T14:30:53.670Z,100506.44
2023-04-04T14:33:22.187Z,100495.81
2023-04-04T14:35:50.987Z,100503.16
2023-04-04T14:38:18.709Z,100498.00
2023-04-04T14:40:48.440Z,100498.97
2023-04-04T14:43:16.191Z,100487.84
2023-04-04T14:45:43.827Z,100487.00
2023-04-04T14:48:11.786Z,100495.81
2023-04-04T14:50:40.464Z,100494.13
2023-04-04T14:53:08.160Z,100486.53
2023-04-04T14:55:35.852Z,100473.88
2023-04-04T14:58:04.930Z,100486.03
2023-04-04T15:00:33.922Z,100475.81
2023-04-04T15:03:01.920Z,100473.69
2023-04-04T15:05:30.284Z,100475.63
2023-04-04T15:07:58.086Z,100475.59
2023-04-04T15:10:26.050Z,100468.41
2023-04-04T15:12:54.244Z,100469.34
2023-04-04T15:15:23.848Z,100457.78
2023-04-04T15:17:52.112Z,100470.59
2023-04-04T15:20:19.903Z,100458.13
2023-04-04T15:22:47.669Z,100455.31
2023-04-04T15:25:15.428Z,100452.91
2023-04-04T15:27:43.174Z,100451.72
2023-04-04T15:30:11.538Z,100455.16
2023-04-04T15:32:40.829Z,100462.72
2023-04-04T15:35:17.371Z,100459.19
2023-04-04T15:37:45.075Z,100462.75
2023-04-04T15:40:13.500Z,100462.25
2023-04-04T15:42:41.328Z,100456.09
2023-04-04T15:45:10.201Z,100448.44
2023-04-04T15:47:37.993Z,100440.38
2023-04-04T15:50:09.528Z,100428.06
2023-04-04T15:52:37.143Z,100438.47
2023-04-04T15:55:07.431Z,100428.28
2023-04-04T15:57:35.089Z,100427.94
2023-04-04T16:00:02.772Z,100438.31
2023-04-04T16:02:31.840Z,100429.06
2023-04-04T16:04:59.685Z,100440.72
2023-04-04T16:07:28.726Z,100428.59
2023-04-04T16:09:56.478Z,100436.19
2023-04-04T16:12:24.216Z,100436.13
2023-04-04T16:14:52.021Z,100438.94
2023-04-04T16:17:19.691Z,100428.19
2023-04-04T16:19:47.491Z,100426.69
2023-04-04T16:22:15.558Z,100425.63
2023-04-04T16:24:44.552Z,100420.97
2023-04-04T16:27:12.219Z,100427.63
2023-04-04T16:29:39.910Z,100422.19
2023-04-04T16:32:08.147Z,100411.66
2023-04-04T16:34:38.808Z,100407.00
2023-04-04T16:37:06.561Z,100412.19
2023-04-04T16:39:34.147Z,100412.09
2023-04-04T16:42:03.344Z,100418.97
2023-04-04T16:44:31.296Z,100409.00
2023-04-04T16:46:59.162Z,100412.81
2023-04-04T16:49:26.965Z,100411.81
2023-04-04T16:51:56.871Z,100402.31
2023-04-04T16:54:24.792Z,100410.66
2023-04-04T16:56:52.502Z,100409.53
2023-04-04T16:59:21.591Z,100408.06
2023-04-04T17:01:49.293Z,100408.91
2023-04-04T17:04:17.112Z,100413.00
2023-04-04T17:06:45.817Z,100414.94
2023-04-04T17:09:13.610Z,100412.19
2023-04-04T17:11:44.688Z,100410.97
2023-04-04T17:14:12.845Z,100407.72
2023-04-04T17:16:43.191Z,100413.94
2023-04-04T17:19:12.086Z,100414.03
2023-04-04T17:21:39.833Z,100413.63
2023-04-04T17:24:07.695Z,100411.56
2023-04-04T17:26:35.366Z,100405.22
2023-04-04T17:29:03.121Z,100408.16
2023-04-04T17:31:31.134Z,100408.19
2023-04-04T17:34:00.218Z,100405.38
2023-04-04T17:36:28.048Z,100404.53
2023-04-04T17:38:55.950Z,100404.50
2023-04-04T17:41:23.642Z,100410.50
2023-04-04T17:43:52.547Z,100410.00
2023-04-04T17:46:20.639Z,100408.94
2023-04-04T17:48:48.460Z,100402.38
2023-04-04T17:51:17.886Z,100408.13
2023-04-04T17:53:46.168Z,100403.28
2023-04-04T17:56:14.236Z,100401.50
2023-04-04T17:58:42.232Z,100398.97
2023-04-04T18:01:10.306Z,100397.38
2023-04-04T18:03:38.603Z,100401.44
2023-04-04T18:06:07.049Z,100398.03
2023-04-04T18:08:36.290Z,100395.81
2023-04-04T18:11:04.957Z,100392.75
2023-04-04T18:13:32.740Z,100391.50
2023-04-04T18:16:02.719Z,100400.81
2023-04-04T18:18:30.722Z,100393.47
2023-04-04T18:20:58.533Z,100396.09
2023-04-04T18:23:27.481Z,100391.63
2023-04-04T18:25:56.857Z,100402.47
2023-04-04T18:28:24.616Z,100408.44
2023-04-04T18:30:52.964Z,100408.97
2023-04-04T18:33:21.120Z,100410.75
2023-04-04T18:35:49.050Z,100414.09
2023-04-04T18:38:17.079Z,100411.56
2023-04-04T18:40:46.148Z,100417.19
2023-04-04T18:43:15.585Z,100420.41
2023-04-04T18:45:43.355Z,100412.63
2023-04-04T18:48:12.575Z,100419.84
2023-04-04T18:50:40.969Z,100428.56
2023-04-04T18:53:09.007Z,100423.59
2023-04-04T18:55:36.971Z,100428.88
2023-04-04T18:58:04.672Z,100443.28
2023-04-04T19:00:33.827Z,100433.72
2023-04-04T19:03:01.691Z,100438.53
2023-04-04T19:05:33.178Z,100452.19
2023-04-04T19:08:03.990Z,100452.44
2023-04-04T19:10:31.912Z,100445.84
2023-04-04T19:12:59.649Z,100448.47
2023-04-04T19:15:27.693Z,100454.81
2023-04-04T19:17:56.847Z,100449.81
2023-04-04T19:20:24.701Z,100457.53
2023-04-04T19:22:52.399Z,100457.03
2023-04-04T19:25:21.249Z,100461.88
2023-04-04T19:27:49.131Z,100467.22
2023-04-04T19:30:40.964Z,100469.25
2023-04-04T19:33:11.907Z,100456.09
2023-04-04T19:35:53.383Z,100463.81
2023-04-04T19:38:24.397Z,100474.69
2023-04-04T19:40:53.926Z,100465.22
2023-04-04T19:43:23.468Z,100476.94
2023-04-04T19:45:52.836Z,100469.97
2023-04-04T19:48:43.660Z,100469.16
2023-04-04T19:51:33.347Z,100470.31
2023-04-04T19:54:01.748Z,100468.28
2023-04-04T19:56:30.004Z,100464.03
2023-04-04T19:58:59.230Z,100468.34
2023-04-04T20:01:29.131Z,100472.16
2023-04-04T20:04:05.368Z,100466.25
2023-04-04T20:06:33.294Z,100469.16
2023-04-04T20:09:02.769Z,100467.78
2023-04-04T20:11:31.340Z,100460.50
2023-04-04T20:13:59.952Z,100467.00
2023-04-04T20:16:28.965Z,100469.44
2023-04-04T20:19:00.526Z,100459.88
2023-04-04T20:21:31.621Z,100469.88
2023-04-04T20:24:03.786Z,100468.44
2023-04-04T20:26:51.350Z,100469.91
2023-04-04T20:29:21.625Z,100470.75
2023-04-04T20:31:51.689Z,100472.66
2023-04-04T20:34:42.827Z,100472.44
2023-04-04T20:37:13.540Z,100472.53
2023-04-04T20:39:46.154Z,100476.41
2023-04-04T20:42:39.936Z,100474.50
2023-04-04T20:45:32.910Z,100475.69
2023-04-04T20:48:06.672Z,100484.78
2023-04-04T20:50:47.385Z,100493.75
2023-04-04T20:53:20.063Z,100494.13
2023-04-04T20:55:48.292Z,100499.38
2023-04-04T20:58:28.137Z,100499.38
2023-04-04T21:00:57.909Z,100501.03
2023-04-04T21:03:35.500Z,100501.84
2023-04-04T21:06:12.768Z,100496.63
2023-04-04T21:08:45.860Z,100497.72
2023-04-04T21:11:14.540Z,100495.41
2023-04-04T21:13:44.831Z,100501.00
2023-04-04T21:16:14.103Z,100497.69
2023-04-04T21:18:42.515Z,100497.03
2023-04-04T21:21:16.536Z,100492.56
2023-04-04T21:23:47.262Z,100494.22
2023-04-04T21:26:28.390Z,100495.13
2023-04-04T21:28:57.286Z,100496.72
2023-04-04T21:31:26.987Z,100496.81
2023-04-04T21:33:58.040Z,100494.25
2023-04-04T21:36:31.128Z,100495.66
2023-04-04T21:39:00.142Z,100500.59
2023-04-04T21:41:29.429Z,100499.41
2023-04-04T21:43:59.252Z,100496.06
2023-04-04T21:46:28.687Z,100497.94
2023-04-04T21:48:56.896Z,100504.81
2023-04-04T21:51:24.913Z,100497.72
2023-04-04T21:53:54.811Z,100498.03
2023-04-04T21:56:26.993Z,100498.41
2023-04-04T21:58:55.464Z,100497.09
2023-04-04T22:01:23.320Z,100489.91
2023-04-04T22:03:51.109Z,100490.19
2023-04-04T22:06:21.641Z,100496.44
2023-04-04T22:08:49.368Z,100490.47
2023-04-04T22:11:20.006Z,100494.69
2023-04-04T22:13:48.367Z,100489.16
2023-04-04T22:16:17.368Z,100499.34
2023-04-04T22:18:46.769Z,100491.50
2023-04-04T22:21:15.776Z,100488.53
2023-04-04T22:23:44.786Z,100489.63
2023-04-04T22:26:13.829Z,100491.78
2023-04-04T22:28:45.810Z,100485.34
2023-04-04T22:31:13.804Z,100491.94
2023-04-04T22:33:41.521Z,100481.34
2023-04-04T22:36:10.114Z,100475.56
2023-04-04T22:38:39.248Z,100481.06
2023-04-04T22:41:07.320Z,100477.63
2023-04-04T22:43:35.084Z,100470.91
2023-04-04T22:46:04.590Z,100480.28
2023-04-04T22:48:38.580Z,100480.19
2023-04-04T22:51:06.487Z,100473.66
2023-04-04T22:53:34.146Z,100477.59
2023-04-04T22:56:02.111Z,100470.88
2023-04-04T22:58:29.794Z,100478.63
2023-04-04T23:00:57.472Z,100479.91
2023-04-04T23:03:26.642Z,100476.66
2023-04-04T23:05:54.275Z,100471.69
2023-04-04T23:08:21.902Z,100475.63
2023-04-04T23:10:49.573Z,100472.44
2023-04-04T23:13:17.430Z,100465.00
2023-04-04T23:15:45.394Z,100479.44
2023-04-04T23:18:13.580Z,100465.63
2023-04-04T23:20:42.948Z,100467.25
2023-04-04T23:23:10.895Z,100465.16
2023-04-04T23:25:38.653Z,100463.66
2023-04-04T23:28:06.402Z,100466.63
2023-04-04T23:30:34.069Z,100472.13
2023-04-04T23:33:01.761Z,100457.91
2023-04-04T23:35:29.501Z,100455.41
2023-04-04T23:37:58.837Z,100464.53
2023-04-04T23:40:26.493Z,100456.66
2023-04-04T23:42:54.265Z,100459.97
2023-04-04T23:45:22.244Z,100458.13
2023-04-04T23:47:49.870Z,100458.06
2023-04-04T23:50:19.164Z,100447.91
2023-04-04T23:52:46.822Z,100447.84
2023-04-04T23:55:17.043Z,100443.63
2023-04-04T23:57:45.009Z,100444.38
